sensor_id;sensor_type;location;lat;lon;timestamp;P1;durP1;ratioP1;P2;durP2;ratioP2
20462;SDS011;10390;53.566;9.980;2022-11-13T00:02:05;15.55;;;11.70;;
20462;SDS011;10390;53.566;9.980;2022-11-13T00:04:31;17.70;;;12.50;;
20462;SDS011;10390;53.566;9.980;2022-11-13T00:06:57;14.25;;;10.50;;
20462;SDS011;10390;53.566;9.980;2022-11-13T00:09:22;15.02;;;11.20;;
20462;SDS011;10390;53.566;9.980;2022-11-13T00:11:48;16.48;;;12.07;;
20462;SDS011;10390;53.566;9.980;2022-11-13T00:14:14;16.58;;;12.00;;
20462;SDS011;10390;53.566;9.980;2022-11-13T00:16:40;16.80;;;13.57;;
20462;SDS011;10390;53.566;9.980;2022-11-13T00:19:05;16.10;;;10.90;;
20462;SDS011;10390;53.566;9.980;2022-11-13T00:21:31;13.93;;;11.02;;
20462;SDS011;10390;53.566;9.980;2022-11-13T00:23:57;14.85;;;10.98;;
20462;SDS011;10390;53.566;9.980;2022-11-13T00:26:24;12.55;;;10.07;;
20462;SDS011;10390;53.566;9.980;2022-11-13T00:28:59;12.85;;;9.98;;
20462;SDS011;10390;53.566;9.980;2022-11-13T00:31:26;14.85;;;10.73;;
20462;SDS011;10390;53.566;9.980;2022-11-13T00:33:53;11.68;;;9.45;;
20462;SDS011;10390;53.566;9.980;2022-11-13T00:36:20;14.70;;;10.70;;
20462;SDS011;10390;53.566;9.980;2022-11-13T00:38:47;12.57;;;9.95;;
20462;SDS011;10390;53.566;9.980;2022-11-13T00:41:13;12.98;;;10.27;;
20462;SDS011;10390;53.566;9.980;2022-11-13T00:43:39;18.58;;;10.30;;
20462;SDS011;10390;53.566;9.980;2022-11-13T00:46:05;13.65;;;10.52;;
20462;SDS011;10390;53.566;9.980;2022-11-13T00:48:32;12.65;;;9.15;;
20462;SDS011;10390;53.566;9.980;2022-11-13T00:50:58;11.60;;;9.02;;
20462;SDS011;10390;53.566;9.980;2022-11-13T00:53:24;11.90;;;8.55;;
20462;SDS011;10390;53.566;9.980;2022-11-13T00:55:49;12.23;;;7.95;;
20462;SDS011;10390;53.566;9.980;2022-11-13T00:58:15;9.70;;;7.40;;
20462;SDS011;10390;53.566;9.980;2022-11-13T01:00:42;9.05;;;7.57;;
20462;SDS011;10390;53.566;9.980;2022-11-13T01:03:10;8.85;;;7.28;;
20462;SDS011;10390;53.566;9.980;2022-11-13T01:05:37;10.00;;;8.07;;
20462;SDS011;10390;53.566;9.980;2022-11-13T01:08:04;9.63;;;8.00;;
20462;SDS011;10390;53.566;9.980;2022-11-13T01:10:30;10.15;;;7.68;;
20462;SDS011;10390;53.566;9.980;2022-11-13T01:12:57;10.93;;;7.93;;
20462;SDS011;10390;53.566;9.980;2022-11-13T01:15:23;8.75;;;7.30;;
20462;SDS011;10390;53.566;9.980;2022-11-13T01:17:49;10.25;;;7.63;;
20462;SDS011;10390;53.566;9.980;2022-11-13T01:20:15;10.00;;;7.43;;
20462;SDS011;10390;53.566;9.980;2022-11-13T01:22:41;9.55;;;7.53;;
20462;SDS011;10390;53.566;9.980;2022-11-13T01:25:07;10.40;;;7.38;;
20462;SDS011;10390;53.566;9.980;2022-11-13T01:27:36;10.10;;;7.63;;
20462;SDS011;10390;53.566;9.980;2022-11-13T01:30:02;8.05;;;6.38;;
20462;SDS011;10390;53.566;9.980;2022-11-13T01:32:29;10.38;;;7.10;;
20462;SDS011;10390;53.566;9.980;2022-11-13T01:34:54;9.10;;;7.32;;
20462;SDS011;10390;53.566;9.980;2022-11-13T01:37:20;9.15;;;7.10;;
20462;SDS011;10390;53.566;9.980;2022-11-13T01:39:46;8.98;;;7.43;;
20462;SDS011;10390;53.566;9.980;2022-11-13T01:42:11;8.35;;;6.93;;
20462;SDS011;10390;53.566;9.980;2022-11-13T01:44:44;8.25;;;6.90;;
20462;SDS011;10390;53.566;9.980;2022-11-13T01:47:16;9.18;;;7.10;;
20462;SDS011;10390;53.566;9.980;2022-11-13T01:49:43;9.15;;;7.40;;
20462;SDS011;10390;53.566;9.980;2022-11-13T01:52:11;8.50;;;6.90;;
20462;SDS011;10390;53.566;9.980;2022-11-13T01:54:49;9.18;;;7.45;;
20462;SDS011;10390;53.566;9.980;2022-11-13T01:57:19;9.30;;;7.53;;
20462;SDS011;10390;53.566;9.980;2022-11-13T01:59:47;9.38;;;6.80;;
20462;SDS011;10390;53.566;9.980;2022-11-13T02:02:15;8.52;;;6.97;;
20462;SDS011;10390;53.566;9.980;2022-11-13T02:06:53;8.18;;;6.63;;
20462;SDS011;10390;53.566;9.980;2022-11-13T02:09:24;8.45;;;7.07;;
20462;SDS011;10390;53.566;9.980;2022-11-13T02:11:53;8.65;;;6.90;;
20462;SDS011;10390;53.566;9.980;2022-11-13T02:14:20;7.45;;;6.65;;
20462;SDS011;10390;53.566;9.980;2022-11-13T02:16:50;8.63;;;6.78;;
20462;SDS011;10390;53.566;9.980;2022-11-13T02:19:28;7.68;;;6.40;;
20462;SDS011;10390;53.566;9.980;2022-11-13T02:22:08;7.90;;;6.57;;
20462;SDS011;10390;53.566;9.980;2022-11-13T02:25:12;8.82;;;6.30;;
20462;SDS011;10390;53.566;9.980;2022-11-13T02:27:43;7.90;;;6.50;;
20462;SDS011;10390;53.566;9.980;2022-11-13T02:30:22;9.90;;;6.68;;
20462;SDS011;10390;53.566;9.980;2022-11-13T02:32:51;7.32;;;6.45;;
20462;SDS011;10390;53.566;9.980;2022-11-13T02:35:27;6.88;;;5.95;;
20462;SDS011;10390;53.566;9.980;2022-11-13T02:37:58;8.82;;;6.55;;
20462;SDS011;10390;53.566;9.980;2022-11-13T02:40:27;8.30;;;6.15;;
20462;SDS011;10390;53.566;9.980;2022-11-13T02:42:53;7.43;;;5.80;;
20462;SDS011;10390;53.566;9.980;2022-11-13T02:45:19;8.50;;;6.60;;
20462;SDS011;10390;53.566;9.980;2022-11-13T02:47:45;6.97;;;6.00;;
20462;SDS011;10390;53.566;9.980;2022-11-13T02:50:12;6.93;;;5.35;;
20462;SDS011;10390;53.566;9.980;2022-11-13T02:52:38;8.15;;;6.00;;
20462;SDS011;10390;53.566;9.980;2022-11-13T02:55:04;7.80;;;5.88;;
20462;SDS011;10390;53.566;9.980;2022-11-13T02:57:31;7.22;;;5.90;;
20462;SDS011;10390;53.566;9.980;2022-11-13T02:59:57;6.75;;;6.03;;
20462;SDS011;10390;53.566;9.980;2022-11-13T03:02:22;8.27;;;6.10;;
20462;SDS011;10390;53.566;9.980;2022-11-13T03:04:48;10.15;;;6.03;;
20462;SDS011;10390;53.566;9.980;2022-11-13T03:07:14;7.75;;;5.90;;
20462;SDS011;10390;53.566;9.980;2022-11-13T03:09:40;8.52;;;5.85;;
20462;SDS011;10390;53.566;9.980;2022-11-13T03:12:06;7.25;;;5.93;;
20462;SDS011;10390;53.566;9.980;2022-11-13T03:14:33;6.93;;;5.70;;
20462;SDS011;10390;53.566;9.980;2022-11-13T03:16:59;6.20;;;5.40;;
20462;SDS011;10390;53.566;9.980;2022-11-13T03:19:25;7.40;;;5.72;;
20462;SDS011;10390;53.566;9.980;2022-11-13T03:21:51;7.35;;;5.80;;
20462;SDS011;10390;53.566;9.980;2022-11-13T03:24:17;6.75;;;5.78;;
20462;SDS011;10390;53.566;9.980;2022-11-13T03:26:43;7.35;;;5.75;;
20462;SDS011;10390;53.566;9.980;2022-11-13T03:29:08;7.88;;;6.13;;
20462;SDS011;10390;53.566;9.980;2022-11-13T03:31:34;6.95;;;5.43;;
20462;SDS011;10390;53.566;9.980;2022-11-13T03:34:00;8.38;;;5.75;;
20462;SDS011;10390;53.566;9.980;2022-11-13T03:36:26;6.63;;;5.32;;
20462;SDS011;10390;53.566;9.980;2022-11-13T03:38:52;7.22;;;5.55;;
20462;SDS011;10390;53.566;9.980;2022-11-13T03:41:18;7.70;;;5.43;;
20462;SDS011;10390;53.566;9.980;2022-11-13T03:43:45;7.57;;;5.38;;
20462;SDS011;10390;53.566;9.980;2022-11-13T03:46:11;7.03;;;5.28;;
20462;SDS011;10390;53.566;9.980;2022-11-13T03:48:37;7.38;;;5.60;;
20462;SDS011;10390;53.566;9.980;2022-11-13T03:51:02;7.07;;;5.60;;
20462;SDS011;10390;53.566;9.980;2022-11-13T03:53:28;7.13;;;6.05;;
20462;SDS011;10390;53.566;9.980;2022-11-13T03:55:54;7.05;;;5.32;;
20462;SDS011;10390;53.566;9.980;2022-11-13T03:58:20;8.05;;;5.70;;
20462;SDS011;10390;53.566;9.980;2022-11-13T04:00:47;7.38;;;5.93;;
20462;SDS011;10390;53.566;9.980;2022-11-13T04:03:13;6.90;;;5.82;;
20462;SDS011;10390;53.566;9.980;2022-11-13T04:05:40;6.55;;;5.55;;
20462;SDS011;10390;53.566;9.980;2022-11-13T04:08:07;7.55;;;5.68;;
20462;SDS011;10390;53.566;9.980;2022-11-13T04:10:33;7.28;;;6.15;;
20462;SDS011;10390;53.566;9.980;2022-11-13T04:12:59;7.90;;;6.22;;
20462;SDS011;10390;53.566;9.980;2022-11-13T04:15:24;7.30;;;5.90;;
20462;SDS011;10390;53.566;9.980;2022-11-13T04:17:50;7.25;;;6.20;;
20462;SDS011;10390;53.566;9.980;2022-11-13T04:20:17;7.15;;;5.82;;
20462;SDS011;10390;53.566;9.980;2022-11-13T04:22:43;8.02;;;6.20;;
20462;SDS011;10390;53.566;9.980;2022-11-13T04:25:09;9.02;;;6.03;;
20462;SDS011;10390;53.566;9.980;2022-11-13T04:27:35;7.40;;;5.80;;
20462;SDS011;10390;53.566;9.980;2022-11-13T04:30:01;8.10;;;5.82;;
20462;SDS011;10390;53.566;9.980;2022-11-13T04:32:30;7.50;;;6.43;;
20462;SDS011;10390;53.566;9.980;2022-11-13T04:34:56;9.13;;;6.22;;
20462;SDS011;10390;53.566;9.980;2022-11-13T04:37:22;7.13;;;5.97;;
20462;SDS011;10390;53.566;9.980;2022-11-13T04:39:48;6.97;;;5.85;;
20462;SDS011;10390;53.566;9.980;2022-11-13T04:42:14;7.68;;;5.97;;
20462;SDS011;10390;53.566;9.980;2022-11-13T04:44:58;7.10;;;6.20;;
20462;SDS011;10390;53.566;9.980;2022-11-13T04:47:23;6.95;;;5.80;;
20462;SDS011;10390;53.566;9.980;2022-11-13T04:49:49;6.57;;;5.68;;
20462;SDS011;10390;53.566;9.980;2022-11-13T04:52:15;7.38;;;5.93;;
20462;SDS011;10390;53.566;9.980;2022-11-13T04:54:41;6.85;;;5.95;;
20462;SDS011;10390;53.566;9.980;2022-11-13T04:57:07;8.35;;;6.13;;
20462;SDS011;10390;53.566;9.980;2022-11-13T04:59:33;7.47;;;6.00;;
20462;SDS011;10390;53.566;9.980;2022-11-13T05:01:59;7.13;;;5.95;;
20462;SDS011;10390;53.566;9.980;2022-11-13T05:04:24;7.60;;;5.80;;
20462;SDS011;10390;53.566;9.980;2022-11-13T05:06:50;8.80;;;6.60;;
20462;SDS011;10390;53.566;9.980;2022-11-13T05:09:16;8.75;;;6.57;;
20462;SDS011;10390;53.566;9.980;2022-11-13T05:11:42;6.93;;;5.75;;
20462;SDS011;10390;53.566;9.980;2022-11-13T05:14:09;7.63;;;6.32;;
20462;SDS011;10390;53.566;9.980;2022-11-13T05:16:36;7.97;;;5.60;;
20462;SDS011;10390;53.566;9.980;2022-11-13T05:19:03;8.05;;;5.72;;
20462;SDS011;10390;53.566;9.980;2022-11-13T05:21:31;6.95;;;5.45;;
20462;SDS011;10390;53.566;9.980;2022-11-13T05:24:02;7.78;;;5.75;;
20462;SDS011;10390;53.566;9.980;2022-11-13T05:26:29;6.10;;;5.35;;
20462;SDS011;10390;53.566;9.980;2022-11-13T05:28:55;6.72;;;5.70;;
20462;SDS011;10390;53.566;9.980;2022-11-13T05:31:23;7.07;;;6.00;;
20462;SDS011;10390;53.566;9.980;2022-11-13T05:33:49;7.53;;;5.80;;
20462;SDS011;10390;53.566;9.980;2022-11-13T05:36:16;6.70;;;5.93;;
20462;SDS011;10390;53.566;9.980;2022-11-13T05:38:44;7.45;;;5.95;;
20462;SDS011;10390;53.566;9.980;2022-11-13T05:41:12;6.80;;;6.00;;
20462;SDS011;10390;53.566;9.980;2022-11-13T05:43:40;6.35;;;5.30;;
20462;SDS011;10390;53.566;9.980;2022-11-13T05:46:08;7.47;;;6.00;;
20462;SDS011;10390;53.566;9.980;2022-11-13T05:48:40;7.05;;;5.70;;
20462;SDS011;10390;53.566;9.980;2022-11-13T05:51:07;7.78;;;5.60;;
20462;SDS011;10390;53.566;9.980;2022-11-13T05:53:41;6.95;;;6.03;;
20462;SDS011;10390;53.566;9.980;2022-11-13T05:56:27;7.18;;;6.03;;
20462;SDS011;10390;53.566;9.980;2022-11-13T05:58:56;6.88;;;5.88;;
20462;SDS011;10390;53.566;9.980;2022-11-13T06:01:25;7.03;;;5.63;;
20462;SDS011;10390;53.566;9.980;2022-11-13T06:03:55;6.50;;;5.50;;
20462;SDS011;10390;53.566;9.980;2022-11-13T06:06:22;7.07;;;5.78;;
20462;SDS011;10390;53.566;9.980;2022-11-13T06:08:50;7.30;;;5.93;;
20462;SDS011;10390;53.566;9.980;2022-11-13T06:11:19;8.57;;;6.93;;
20462;SDS011;10390;53.566;9.980;2022-11-13T06:13:49;7.05;;;5.90;;
20462;SDS011;10390;53.566;9.980;2022-11-13T06:16:17;9.35;;;6.47;;
20462;SDS011;10390;53.566;9.980;2022-11-13T06:18:47;6.63;;;5.75;;
20462;SDS011;10390;53.566;9.980;2022-11-13T06:21:15;6.68;;;5.30;;
20462;SDS011;10390;53.566;9.980;2022-11-13T06:23:44;6.63;;;5.82;;
20462;SDS011;10390;53.566;9.980;2022-11-13T06:26:11;6.95;;;5.78;;
20462;SDS011;10390;53.566;9.980;2022-11-13T06:28:38;9.85;;;6.25;;
20462;SDS011;10390;53.566;9.980;2022-11-13T06:31:06;6.57;;;5.88;;
20462;SDS011;10390;53.566;9.980;2022-11-13T06:33:38;7.90;;;6.05;;
20462;SDS011;10390;53.566;9.980;2022-11-13T06:36:08;7.50;;;5.93;;
20462;SDS011;10390;53.566;9.980;2022-11-13T06:38:40;7.72;;;6.05;;
20462;SDS011;10390;53.566;9.980;2022-11-13T06:41:07;7.90;;;5.80;;
20462;SDS011;10390;53.566;9.980;2022-11-13T06:43:36;6.97;;;5.78;;
20462;SDS011;10390;53.566;9.980;2022-11-13T06:46:03;7.70;;;6.30;;
20462;SDS011;10390;53.566;9.980;2022-11-13T06:48:33;8.68;;;7.00;;
20462;SDS011;10390;53.566;9.980;2022-11-13T06:50:59;7.25;;;6.18;;
20462;SDS011;10390;53.566;9.980;2022-11-13T06:53:30;7.28;;;6.15;;
20462;SDS011;10390;53.566;9.980;2022-11-13T06:55:56;8.98;;;6.45;;
20462;SDS011;10390;53.566;9.980;2022-11-13T06:58:23;7.18;;;6.03;;
20462;SDS011;10390;53.566;9.980;2022-11-13T07:00:49;7.55;;;6.22;;
20462;SDS011;10390;53.566;9.980;2022-11-13T07:05:44;8.05;;;6.97;;
20462;SDS011;10390;53.566;9.980;2022-11-13T07:08:10;7.05;;;5.70;;
20462;SDS011;10390;53.566;9.980;2022-11-13T07:10:36;7.65;;;6.28;;
20462;SDS011;10390;53.566;9.980;2022-11-13T07:13:03;10.73;;;6.35;;
20462;SDS011;10390;53.566;9.980;2022-11-13T07:15:31;8.18;;;6.00;;
20462;SDS011;10390;53.566;9.980;2022-11-13T07:18:02;7.90;;;6.30;;
20462;SDS011;10390;53.566;9.980;2022-11-13T07:20:30;6.80;;;5.70;;
20462;SDS011;10390;53.566;9.980;2022-11-13T07:22:56;7.57;;;5.70;;
20462;SDS011;10390;53.566;9.980;2022-11-13T07:25:24;8.05;;;5.95;;
20462;SDS011;10390;53.566;9.980;2022-11-13T07:27:50;10.32;;;5.57;;
20462;SDS011;10390;53.566;9.980;2022-11-13T07:30:17;6.63;;;5.60;;
20462;SDS011;10390;53.566;9.980;2022-11-13T07:32:42;8.43;;;6.00;;
20462;SDS011;10390;53.566;9.980;2022-11-13T07:35:08;7.90;;;6.00;;
20462;SDS011;10390;53.566;9.980;2022-11-13T07:37:35;6.70;;;5.43;;
20462;SDS011;10390;53.566;9.980;2022-11-13T07:40:01;7.75;;;6.00;;
20462;SDS011;10390;53.566;9.980;2022-11-13T07:42:27;7.30;;;5.88;;
20462;SDS011;10390;53.566;9.980;2022-11-13T07:44:53;8.35;;;6.05;;
20462;SDS011;10390;53.566;9.980;2022-11-13T07:47:19;9.25;;;6.15;;
20462;SDS011;10390;53.566;9.980;2022-11-13T07:49:44;6.95;;;5.68;;
20462;SDS011;10390;53.566;9.980;2022-11-13T07:52:11;7.03;;;5.75;;
20462;SDS011;10390;53.566;9.980;2022-11-13T07:54:37;8.63;;;5.60;;
20462;SDS011;10390;53.566;9.980;2022-11-13T07:57:02;8.80;;;6.05;;
20462;SDS011;10390;53.566;9.980;2022-11-13T07:59:28;9.18;;;6.40;;
20462;SDS011;10390;53.566;9.980;2022-11-13T08:01:54;9.60;;;5.50;;
20462;SDS011;10390;53.566;9.980;2022-11-13T08:04:20;9.10;;;6.07;;
20462;SDS011;10390;53.566;9.980;2022-11-13T08:06:45;7.60;;;5.68;;
20462;SDS011;10390;53.566;9.980;2022-11-13T08:09:11;8.73;;;5.68;;
20462;SDS011;10390;53.566;9.980;2022-11-13T08:11:37;8.60;;;6.28;;
20462;SDS011;10390;53.566;9.980;2022-11-13T08:14:03;9.13;;;5.22;;
20462;SDS011;10390;53.566;9.980;2022-11-13T08:16:29;9.90;;;6.30;;
20462;SDS011;10390;53.566;9.980;2022-11-13T08:18:55;8.80;;;5.47;;
20462;SDS011;10390;53.566;9.980;2022-11-13T08:21:21;10.10;;;5.93;;
20462;SDS011;10390;53.566;9.980;2022-11-13T08:23:47;9.32;;;5.68;;
20462;SDS011;10390;53.566;9.980;2022-11-13T08:26:14;11.93;;;6.53;;
20462;SDS011;10390;53.566;9.980;2022-11-13T08:28:44;12.30;;;6.05;;
20462;SDS011;10390;53.566;9.980;2022-11-13T08:31:11;8.20;;;5.97;;
20462;SDS011;10390;53.566;9.980;2022-11-13T08:33:40;9.80;;;6.28;;
20462;SDS011;10390;53.566;9.980;2022-11-13T08:36:07;13.98;;;6.45;;
20462;SDS011;10390;53.566;9.980;2022-11-13T08:38:34;7.15;;;5.68;;
20462;SDS011;10390;53.566;9.980;2022-11-13T08:41:02;8.20;;;5.72;;
20462;SDS011;10390;53.566;9.980;2022-11-13T08:43:30;8.68;;;5.32;;
20462;SDS011;10390;53.566;9.980;2022-11-13T08:45:56;9.93;;;5.78;;
20462;SDS011;10390;53.566;9.980;2022-11-13T08:48:22;9.50;;;5.90;;
20462;SDS011;10390;53.566;9.980;2022-11-13T08:50:52;9.65;;;6.60;;
20462;SDS011;10390;53.566;9.980;2022-11-13T08:53:19;7.93;;;6.45;;
20462;SDS011;10390;53.566;9.980;2022-11-13T08:55:46;7.68;;;5.93;;
20462;SDS011;10390;53.566;9.980;2022-11-13T08:58:12;7.93;;;5.75;;
20462;SDS011;10390;53.566;9.980;2022-11-13T09:00:38;13.07;;;6.32;;
20462;SDS011;10390;53.566;9.980;2022-11-13T09:03:04;11.20;;;5.82;;
20462;SDS011;10390;53.566;9.980;2022-11-13T09:05:30;7.47;;;5.85;;
20462;SDS011;10390;53.566;9.980;2022-11-13T09:07:56;8.75;;;6.13;;
20462;SDS011;10390;53.566;9.980;2022-11-13T09:10:24;9.48;;;6.47;;
20462;SDS011;10390;53.566;9.980;2022-11-13T09:12:55;11.80;;;6.47;;
20462;SDS011;10390;53.566;9.980;2022-11-13T09:15:23;9.70;;;6.90;;
20462;SDS011;10390;53.566;9.980;2022-11-13T09:17:50;8.13;;;6.55;;
20462;SDS011;10390;53.566;9.980;2022-11-13T09:20:19;7.35;;;5.65;;
20462;SDS011;10390;53.566;9.980;2022-11-13T09:22:45;8.63;;;6.15;;
20462;SDS011;10390;53.566;9.980;2022-11-13T09:25:11;8.63;;;6.30;;
20462;SDS011;10390;53.566;9.980;2022-11-13T09:27:36;9.60;;;6.28;;
20462;SDS011;10390;53.566;9.980;2022-11-13T09:30:02;7.70;;;5.45;;
20462;SDS011;10390;53.566;9.980;2022-11-13T09:32:29;8.77;;;6.65;;
20462;SDS011;10390;53.566;9.980;2022-11-13T09:34:55;8.25;;;6.45;;
20462;SDS011;10390;53.566;9.980;2022-11-13T09:37:21;10.05;;;6.50;;
20462;SDS011;10390;53.566;9.980;2022-11-13T09:39:46;7.80;;;5.70;;
20462;SDS011;10390;53.566;9.980;2022-11-13T09:42:23;7.47;;;6.18;;
20462;SDS011;10390;53.566;9.980;2022-11-13T09:44:53;8.75;;;6.45;;
20462;SDS011;10390;53.566;9.980;2022-11-13T09:47:35;6.57;;;5.57;;
20462;SDS011;10390;53.566;9.980;2022-11-13T09:50:15;8.48;;;5.90;;
20462;SDS011;10390;53.566;9.980;2022-11-13T09:52:46;7.82;;;6.35;;
20462;SDS011;10390;53.566;9.980;2022-11-13T09:55:13;7.88;;;5.97;;
20462;SDS011;10390;53.566;9.980;2022-11-13T10:00:47;9.20;;;5.97;;
20462;SDS011;10390;53.566;9.980;2022-11-13T10:03:28;9.10;;;6.50;;
20462;SDS011;10390;53.566;9.980;2022-11-13T10:08:54;10.57;;;6.68;;
20462;SDS011;10390;53.566;9.980;2022-11-13T10:14:39;9.80;;;6.13;;
20462;SDS011;10390;53.566;9.980;2022-11-13T10:20:06;9.88;;;6.10;;
20462;SDS011;10390;53.566;9.980;2022-11-13T10:22:50;9.88;;;5.90;;
20462;SDS011;10390;53.566;9.980;2022-11-13T10:25:27;8.90;;;6.35;;
20462;SDS011;10390;53.566;9.980;2022-11-13T10:27:59;9.70;;;5.78;;
20462;SDS011;10390;53.566;9.980;2022-11-13T10:30:26;13.55;;;6.30;;
20462;SDS011;10390;53.566;9.980;2022-11-13T10:32:53;10.38;;;5.90;;
20462;SDS011;10390;53.566;9.980;2022-11-13T10:40:42;7.53;;;6.13;;
20462;SDS011;10390;53.566;9.980;2022-11-13T10:45:56;12.30;;;6.82;;
20462;SDS011;10390;53.566;9.980;2022-11-13T10:48:33;13.38;;;6.45;;
20462;SDS011;10390;53.566;9.980;2022-11-13T10:51:01;8.10;;;6.35;;
20462;SDS011;10390;53.566;9.980;2022-11-13T10:53:51;10.75;;;7.00;;
20462;SDS011;10390;53.566;9.980;2022-11-13T11:01:27;10.68;;;8.13;;
20462;SDS011;10390;53.566;9.980;2022-11-13T11:03:53;11.20;;;8.95;;
20462;SDS011;10390;53.566;9.980;2022-11-13T11:06:23;10.93;;;8.57;;
20462;SDS011;10390;53.566;9.980;2022-11-13T11:12:00;10.93;;;8.27;;
20462;SDS011;10390;53.566;9.980;2022-11-13T11:15:03;12.38;;;8.00;;
20462;SDS011;10390;53.566;9.980;2022-11-13T11:18:05;12.73;;;9.20;;
20462;SDS011;10390;53.566;9.980;2022-11-13T11:26:06;13.70;;;9.52;;
20462;SDS011;10390;53.566;9.980;2022-11-13T11:31:21;11.93;;;8.07;;
20462;SDS011;10390;53.566;9.980;2022-11-13T11:34:16;9.80;;;6.95;;
20462;SDS011;10390;53.566;9.980;2022-11-13T11:37:10;9.98;;;7.70;;
20462;SDS011;10390;53.566;9.980;2022-11-13T11:39:48;10.85;;;8.23;;
20462;SDS011;10390;53.566;9.980;2022-11-13T11:42:38;10.90;;;7.93;;
20462;SDS011;10390;53.566;9.980;2022-11-13T11:45:19;12.73;;;8.93;;
20462;SDS011;10390;53.566;9.980;2022-11-13T11:48:05;11.88;;;9.82;;
20462;SDS011;10390;53.566;9.980;2022-11-13T11:57:33;9.40;;;7.20;;
20462;SDS011;10390;53.566;9.980;2022-11-13T12:00:17;8.63;;;7.65;;
20462;SDS011;10390;53.566;9.980;2022-11-13T12:05:56;10.05;;;6.90;;
20462;SDS011;10390;53.566;9.980;2022-11-13T12:09:27;8.85;;;6.63;;
20462;SDS011;10390;53.566;9.980;2022-11-13T12:14:48;11.20;;;7.15;;
20462;SDS011;10390;53.566;9.980;2022-11-13T12:17:54;11.20;;;6.30;;
20462;SDS011;10390;53.566;9.980;2022-11-13T12:32:31;15.73;;;7.13;;
20462;SDS011;10390;53.566;9.980;2022-11-13T12:35:02;15.50;;;7.18;;
20462;SDS011;10390;53.566;9.980;2022-11-13T12:37:49;13.65;;;8.82;;
20462;SDS011;10390;53.566;9.980;2022-11-13T12:40:57;14.98;;;7.65;;
20462;SDS011;10390;53.566;9.980;2022-11-13T12:46:53;12.13;;;7.18;;
20462;SDS011;10390;53.566;9.980;2022-11-13T12:51:54;13.07;;;6.97;;
20462;SDS011;10390;53.566;9.980;2022-11-13T12:59:38;10.30;;;6.55;;
20462;SDS011;10390;53.566;9.980;2022-11-13T13:04:57;10.05;;;6.13;;
20462;SDS011;10390;53.566;9.980;2022-11-13T13:08:00;8.20;;;6.07;;
20462;SDS011;10390;53.566;9.980;2022-11-13T13:14:03;10.23;;;6.32;;
20462;SDS011;10390;53.566;9.980;2022-11-13T13:16:49;9.43;;;6.35;;
20462;SDS011;10390;53.566;9.980;2022-11-13T13:21:52;14.80;;;6.55;;
20462;SDS011;10390;53.566;9.980;2022-11-13T13:24:26;9.75;;;6.18;;
20462;SDS011;10390;53.566;9.980;2022-11-13T13:26:55;8.73;;;5.70;;
20462;SDS011;10390;53.566;9.980;2022-11-13T13:29:22;9.48;;;6.25;;
20462;SDS011;10390;53.566;9.980;2022-11-13T13:46:28;11.40;;;7.45;;
20462;SDS011;10390;53.566;9.980;2022-11-13T13:49:07;11.50;;;7.90;;
20462;SDS011;10390;53.566;9.980;2022-11-13T13:51:45;10.75;;;7.90;;
20462;SDS011;10390;53.566;9.980;2022-11-13T13:54:35;12.65;;;9.23;;
20462;SDS011;10390;53.566;9.980;2022-11-13T13:57:10;12.68;;;8.95;;
20462;SDS011;10390;53.566;9.980;2022-11-13T13:59:39;16.30;;;8.93;;
20462;SDS011;10390;53.566;9.980;2022-11-13T14:02:18;11.45;;;7.35;;
20462;SDS011;10390;53.566;9.980;2022-11-13T14:04:50;9.73;;;6.72;;
20462;SDS011;10390;53.566;9.980;2022-11-13T14:12:44;10.98;;;7.80;;
20462;SDS011;10390;53.566;9.980;2022-11-13T14:15:20;11.40;;;7.63;;
20462;SDS011;10390;53.566;9.980;2022-11-13T14:18:07;12.13;;;7.72;;
20462;SDS011;10390;53.566;9.980;2022-11-13T14:23:19;12.68;;;9.23;;
20462;SDS011;10390;53.566;9.980;2022-11-13T14:26:20;13.60;;;10.02;;
20462;SDS011;10390;53.566;9.980;2022-11-13T14:31:25;17.73;;;13.07;;
20462;SDS011;10390;53.566;9.980;2022-11-13T14:33:54;14.00;;;10.15;;
20462;SDS011;10390;53.566;9.980;2022-11-13T14:36:25;14.15;;;10.40;;
20462;SDS011;10390;53.566;9.980;2022-11-13T14:38:56;11.63;;;9.32;;
20462;SDS011;10390;53.566;9.980;2022-11-13T14:41:33;11.60;;;7.78;;
20462;SDS011;10390;53.566;9.980;2022-11-13T14:44:28;11.48;;;7.82;;
20462;SDS011;10390;53.566;9.980;2022-11-13T14:47:00;12.43;;;6.88;;
20462;SDS011;10390;53.566;9.980;2022-11-13T14:49:45;9.25;;;6.63;;
20462;SDS011;10390;53.566;9.980;2022-11-13T14:52:21;10.57;;;6.85;;
20462;SDS011;10390;53.566;9.980;2022-11-13T14:55:03;10.20;;;6.25;;
20462;SDS011;10390;53.566;9.980;2022-11-13T14:57:32;10.82;;;6.07;;
20462;SDS011;10390;53.566;9.980;2022-11-13T15:00:25;9.80;;;6.13;;
20462;SDS011;10390;53.566;9.980;2022-11-13T15:02:56;10.30;;;5.90;;
20462;SDS011;10390;53.566;9.980;2022-11-13T15:05:23;10.15;;;6.75;;
20462;SDS011;10390;53.566;9.980;2022-11-13T15:07:49;8.40;;;6.35;;
20462;SDS011;10390;53.566;9.980;2022-11-13T15:10:18;11.75;;;6.60;;
20462;SDS011;10390;53.566;9.980;2022-11-13T15:12:47;11.68;;;5.90;;
20462;SDS011;10390;53.566;9.980;2022-11-13T15:15:17;12.18;;;6.80;;
20462;SDS011;10390;53.566;9.980;2022-11-13T15:17:49;10.07;;;6.72;;
20462;SDS011;10390;53.566;9.980;2022-11-13T15:20:23;9.80;;;7.75;;
20462;SDS011;10390;53.566;9.980;2022-11-13T15:22:52;9.10;;;6.63;;
20462;SDS011;10390;53.566;9.980;2022-11-13T15:25:19;11.60;;;7.75;;
20462;SDS011;10390;53.566;9.980;2022-11-13T15:27:47;22.33;;;8.25;;
20462;SDS011;10390;53.566;9.980;2022-11-13T15:30:14;22.00;;;8.65;;
20462;SDS011;10390;53.566;9.980;2022-11-13T15:32:41;12.40;;;8.90;;
20462;SDS011;10390;53.566;9.980;2022-11-13T15:35:15;14.50;;;8.18;;
20462;SDS011;10390;53.566;9.980;2022-11-13T15:37:42;13.02;;;7.07;;
20462;SDS011;10390;53.566;9.980;2022-11-13T15:40:09;12.70;;;8.55;;
20462;SDS011;10390;53.566;9.980;2022-11-13T15:42:37;14.80;;;9.90;;
20462;SDS011;10390;53.566;9.980;2022-11-13T15:45:03;14.38;;;10.30;;
20462;SDS011;10390;53.566;9.980;2022-11-13T15:47:31;15.00;;;10.18;;
20462;SDS011;10390;53.566;9.980;2022-11-13T15:50:01;15.98;;;11.77;;
20462;SDS011;10390;53.566;9.980;2022-11-13T15:52:32;14.18;;;9.23;;
20462;SDS011;10390;53.566;9.980;2022-11-13T15:55:03;14.32;;;9.50;;
20462;SDS011;10390;53.566;9.980;2022-11-13T15:57:54;17.40;;;12.35;;
20462;SDS011;10390;53.566;9.980;2022-11-13T16:00:22;16.33;;;11.93;;
20462;SDS011;10390;53.566;9.980;2022-11-13T16:02:54;15.93;;;12.15;;
20462;SDS011;10390;53.566;9.980;2022-11-13T16:05:25;16.17;;;11.20;;
20462;SDS011;10390;53.566;9.980;2022-11-13T16:07:53;16.17;;;12.52;;
20462;SDS011;10390;53.566;9.980;2022-11-13T16:10:20;19.83;;;12.55;;
20462;SDS011;10390;53.566;9.980;2022-11-13T16:12:48;17.13;;;10.27;;
20462;SDS011;10390;53.566;9.980;2022-11-13T16:15:15;14.25;;;10.65;;
20462;SDS011;10390;53.566;9.980;2022-11-13T16:17:43;13.93;;;9.93;;
20462;SDS011;10390;53.566;9.980;2022-11-13T16:20:13;12.85;;;9.10;;
20462;SDS011;10390;53.566;9.980;2022-11-13T16:22:40;12.98;;;10.43;;
20462;SDS011;10390;53.566;9.980;2022-11-13T16:25:09;11.23;;;8.38;;
20462;SDS011;10390;53.566;9.980;2022-11-13T16:27:38;11.93;;;9.65;;
20462;SDS011;10390;53.566;9.980;2022-11-13T16:30:04;13.85;;;10.93;;
20462;SDS011;10390;53.566;9.980;2022-11-13T16:32:30;12.73;;;10.07;;
20462;SDS011;10390;53.566;9.980;2022-11-13T16:34:56;16.73;;;12.70;;
20462;SDS011;10390;53.566;9.980;2022-11-13T16:37:22;17.05;;;14.00;;
20462;SDS011;10390;53.566;9.980;2022-11-13T16:39:48;13.05;;;10.30;;
20462;SDS011;10390;53.566;9.980;2022-11-13T16:42:15;10.05;;;8.45;;
20462;SDS011;10390;53.566;9.980;2022-11-13T16:44:41;11.30;;;8.80;;
20462;SDS011;10390;53.566;9.980;2022-11-13T16:47:23;12.38;;;9.68;;
20462;SDS011;10390;53.566;9.980;2022-11-13T16:49:50;11.93;;;8.95;;